sensor_id;sensor_type;location;lat;lon;timestamp;pressure;altitude;pressure_sealevel;temperature;humidity
46682;BME280;34101;53.430;-2.224;2023-03-22T00:01:12;99097.92;;;11.29;72.05
46682;BME280;34101;53.430;-2.224;2023-03-22T00:03:41;99086.95;;;11.37;71.35
46682;BME280;34101;53.430;-2.224;2023-03-22T00:06:09;99089.89;;;11.03;72.99
46682;BME280;34101;53.430;-2.224;2023-03-22T00:08:38;99076.12;;;11.36;71.72
46682;BME280;34101;53.430;-2.224;2023-03-22T00:11:06;99074.55;;;11.34;71.32
46682;BME280;34101;53.430;-2.224;2023-03-22T00:13:34;99072.39;;;11.38;71.69
46682;BME280;34101;53.430;-2.224;2023-03-22T00:16:13;99072.10;;;10.93;73.67
46682;BME280;34101;53.430;-2.224;2023-03-22T00:18:41;99059.12;;;10.97;73.94
46682;BME280;34101;53.430;-2.224;2023-03-22T00:21:11;99056.60;;;11.00;74.14
46682;BME280;34101;53.430;-2.224;2023-03-22T00:23:49;99045.95;;;11.05;73.56
46682;BME280;34101;53.430;-2.224;2023-03-22T00:26:19;99038.31;;;10.85;74.71
46682;BME280;34101;53.430;-2.224;2023-03-22T00:28:48;99025.01;;;10.75;75.00
46682;BME280;34101;53.430;-2.224;2023-03-22T00:31:16;99015.17;;;11.20;73.58
46682;BME280;34101;53.430;-2.224;2023-03-22T00:33:45;99023.96;;;11.16;73.33
46682;BME280;34101;53.430;-2.224;2023-03-22T00:36:15;99010.38;;;11.15;73.26
46682;BME280;34101;53.430;-2.224;2023-03-22T00:38:42;99007.87;;;11.28;72.64
46682;BME280;34101;53.430;-2.224;2023-03-22T00:41:14;99011.83;;;10.95;73.86
46682;BME280;34101;53.430;-2.224;2023-03-22T00:43:44;99017.12;;;11.10;73.21
46682;BME280;34101;53.430;-2.224;2023-03-22T00:46:13;99007.11;;;11.28;72.68
46682;BME280;34101;53.430;-2.224;2023-03-22T00:48:42;99011.63;;;11.44;71.84
46682;BME280;34101;53.430;-2.224;2023-03-22T00:51:12;99000.50;;;11.52;71.61
46682;BME280;34101;53.430;-2.224;2023-03-22T00:53:40;98988.50;;;11.50;71.49
46682;BME280;34101;53.430;-2.224;2023-03-22T00:56:10;98972.30;;;11.42;71.87
46682;BME280;34101;53.430;-2.224;2023-03-22T00:58:40;98978.32;;;11.11;73.20
46682;BME280;34101;53.430;-2.224;2023-03-22T01:01:08;98981.62;;;11.18;72.60
46682;BME280;34101;53.430;-2.224;2023-03-22T01:03:36;98961.33;;;11.32;72.35
46682;BME280;34101;53.430;-2.224;2023-03-22T01:06:07;98958.61;;;11.32;72.59
46682;BME280;34101;53.430;-2.224;2023-03-22T01:08:36;98953.94;;;11.54;71.63
46682;BME280;34101;53.430;-2.224;2023-03-22T01:11:04;98948.76;;;11.23;72.90
46682;BME280;34101;53.430;-2.224;2023-03-22T01:13:35;98940.01;;;11.43;72.30
46682;BME280;34101;53.430;-2.224;2023-03-22T01:16:04;98935.98;;;11.49;72.07
46682;BME280;34101;53.430;-2.224;2023-03-22T01:18:32;98936.50;;;11.56;72.09
46682;BME280;34101;53.430;-2.224;2023-03-22T01:21:02;98922.08;;;11.18;73.30
46682;BME280;34101;53.430;-2.224;2023-03-22T01:23:30;98921.53;;;11.52;72.37
46682;BME280;34101;53.430;-2.224;2023-03-22T01:25:58;98912.39;;;11.32;72.81
46682;BME280;34101;53.430;-2.224;2023-03-22T01:28:30;98915.76;;;11.66;71.92
46682;BME280;34101;53.430;-2.224;2023-03-22T01:31:00;98917.90;;;11.39;72.76
46682;BME280;34101;53.430;-2.224;2023-03-22T01:33:29;98908.56;;;11.31;73.51
46682;BME280;34101;53.430;-2.224;2023-03-22T01:35:57;98904.83;;;11.48;73.30
46682;BME280;34101;53.430;-2.224;2023-03-22T01:38:26;98903.97;;;11.19;74.85
46682;BME280;34101;53.430;-2.224;2023-03-22T01:40:53;98902.84;;;11.23;75.11
46682;BME280;34101;53.430;-2.224;2023-03-22T01:43:20;98913.04;;;11.14;75.98
46682;BME280;34101;53.430;-2.224;2023-03-22T01:45:54;98928.14;;;10.72;77.50
46682;BME280;34101;53.430;-2.224;2023-03-22T01:48:25;98896.56;;;10.92;77.12
46682;BME280;34101;53.430;-2.224;2023-03-22T01:51:01;98896.03;;;11.11;76.90
46682;BME280;34101;53.430;-2.224;2023-03-22T01:53:33;98893.46;;;10.87;78.06
46682;BME280;34101;53.430;-2.224;2023-03-22T01:56:02;98889.09;;;10.90;78.45
46682;BME280;34101;53.430;-2.224;2023-03-22T01:58:31;98908.06;;;10.53;79.98
46682;BME280;34101;53.430;-2.224;2023-03-22T02:01:00;98877.52;;;10.70;79.72
46682;BME280;34101;53.430;-2.224;2023-03-22T02:03:36;98884.20;;;10.79;79.46
46682;BME280;34101;53.430;-2.224;2023-03-22T02:06:05;98882.94;;;10.71;79.73
46682;BME280;34101;53.430;-2.224;2023-03-22T02:08:33;98871.71;;;10.94;79.26
46682;BME280;34101;53.430;-2.224;2023-03-22T02:11:02;98857.10;;;10.45;81.59
46682;BME280;34101;53.430;-2.224;2023-03-22T02:13:40;98856.93;;;10.70;81.05
46682;BME280;34101;53.430;-2.224;2023-03-22T02:16:23;98852.00;;;10.85;80.30
46682;BME280;34101;53.430;-2.224;2023-03-22T02:19:05;98847.78;;;10.58;81.50
46682;BME280;34101;53.430;-2.224;2023-03-22T02:21:55;98842.65;;;10.65;81.52
46682;BME280;34101;53.430;-2.224;2023-03-22T02:24:39;98840.38;;;10.44;82.16
46682;BME280;34101;53.430;-2.224;2023-03-22T02:27:38;98830.32;;;10.92;80.67
46682;BME280;34101;53.430;-2.224;2023-03-22T02:31:07;98828.49;;;10.99;80.17
46682;BME280;34101;53.430;-2.224;2023-03-22T02:34:43;98807.23;;;10.76;81.26
46682;BME280;34101;53.430;-2.224;2023-03-22T02:38:41;98801.51;;;11.02;80.46
46682;BME280;34101;53.430;-2.224;2023-03-22T02:41:12;98786.61;;;10.77;81.49
46682;BME280;34101;53.430;-2.224;2023-03-22T02:43:50;98767.73;;;10.67;82.02
46682;BME280;34101;53.430;-2.224;2023-03-22T02:46:25;98766.17;;;10.73;81.96
46682;BME280;34101;53.430;-2.224;2023-03-22T02:48:59;98749.06;;;10.73;82.02
46682;BME280;34101;53.430;-2.224;2023-03-22T02:51:38;98736.72;;;10.93;81.44
46682;BME280;34101;53.430;-2.224;2023-03-22T02:54:12;98696.49;;;10.67;82.19
46682;BME280;34101;53.430;-2.224;2023-03-22T02:56:47;98697.26;;;10.80;81.95
46682;BME280;34101;53.430;-2.224;2023-03-22T02:59:17;98704.46;;;10.63;82.61
46682;BME280;34101;53.430;-2.224;2023-03-22T03:03:43;98711.20;;;10.89;81.80
46682;BME280;34101;53.430;-2.224;2023-03-22T03:06:26;98710.26;;;10.78;81.99
46682;BME280;34101;53.430;-2.224;2023-03-22T03:08:57;98714.44;;;10.82;81.68
46682;BME280;34101;53.430;-2.224;2023-03-22T03:11:24;98704.88;;;10.82;81.40
46682;BME280;34101;53.430;-2.224;2023-03-22T03:13:52;98726.65;;;10.75;82.42
46682;BME280;34101;53.430;-2.224;2023-03-22T03:16:20;98713.38;;;10.96;81.50
46682;BME280;34101;53.430;-2.224;2023-03-22T03:18:52;98738.82;;;10.79;82.27
46682;BME280;34101;53.430;-2.224;2023-03-22T03:21:28;98750.13;;;10.81;81.86
46682;BME280;34101;53.430;-2.224;2023-03-22T03:24:05;98741.25;;;10.90;81.28
46682;BME280;34101;53.430;-2.224;2023-03-22T03:26:42;98732.26;;;11.11;80.74
46682;BME280;34101;53.430;-2.224;2023-03-22T03:29:18;98746.15;;;11.30;79.90
46682;BME280;34101;53.430;-2.224;2023-03-22T03:31:51;98725.07;;;11.19;80.31
46682;BME280;34101;53.430;-2.224;2023-03-22T03:34:25;98730.97;;;11.22;80.12
46682;BME280;34101;53.430;-2.224;2023-03-22T03:36:58;98740.31;;;11.38;79.51
46682;BME280;34101;53.430;-2.224;2023-03-22T03:39:30;98755.07;;;11.39;79.20
46682;BME280;34101;53.430;-2.224;2023-03-22T03:42:00;98742.86;;;11.01;80.75
46682;BME280;34101;53.430;-2.224;2023-03-22T03:44:29;98745.75;;;11.38;79.49
46682;BME280;34101;53.430;-2.224;2023-03-22T03:46:57;98735.58;;;11.29;79.80
46682;BME280;34101;53.430;-2.224;2023-03-22T03:49:27;98737.82;;;11.15;80.52
46682;BME280;34101;53.430;-2.224;2023-03-22T03:51:55;98729.45;;;11.39;79.43
46682;BME280;34101;53.430;-2.224;2023-03-22T03:54:22;98737.83;;;11.32;79.57
46682;BME280;34101;53.430;-2.224;2023-03-22T03:56:49;98759.64;;;11.31;79.95
46682;BME280;34101;53.430;-2.224;2023-03-22T03:59:18;98744.83;;;11.29;80.02
46682;BME280;34101;53.430;-2.224;2023-03-22T04:01:47;98755.79;;;11.40;79.74
46682;BME280;34101;53.430;-2.224;2023-03-22T04:04:15;98742.88;;;11.58;78.92
46682;BME280;34101;53.430;-2.224;2023-03-22T04:06:44;98763.20;;;11.33;80.03
46682;BME280;34101;53.430;-2.224;2023-03-22T04:09:11;98761.84;;;11.57;78.94
46682;BME280;34101;53.430;-2.224;2023-03-22T04:11:38;98768.54;;;11.57;79.38
46682;BME280;34101;53.430;-2.224;2023-03-22T04:14:06;98776.46;;;11.55;79.13
46682;BME280;34101;53.430;-2.224;2023-03-22T04:16:33;98783.55;;;11.69;78.84
46682;BME280;34101;53.430;-2.224;2023-03-22T04:19:00;98785.28;;;11.63;78.91
46682;BME280;34101;53.430;-2.224;2023-03-22T04:21:28;98785.12;;;11.36;80.39
46682;BME280;34101;53.430;-2.224;2023-03-22T04:23:55;98784.76;;;11.61;79.29
46682;BME280;34101;53.430;-2.224;2023-03-22T04:26:23;98785.59;;;11.32;80.44
46682;BME280;34101;53.430;-2.224;2023-03-22T04:28:50;98779.67;;;11.56;80.05
46682;BME280;34101;53.430;-2.224;2023-03-22T04:31:18;98830.28;;;11.75;79.48
46682;BME280;34101;53.430;-2.224;2023-03-22T04:33:45;98824.83;;;11.37;80.73
46682;BME280;34101;53.430;-2.224;2023-03-22T04:36:13;98826.91;;;11.21;79.64
46682;BME280;34101;53.430;-2.224;2023-03-22T04:38:41;98832.49;;;11.23;78.31
46682;BME280;34101;53.430;-2.224;2023-03-22T04:41:09;98840.03;;;11.36;77.82
46682;BME280;34101;53.430;-2.224;2023-03-22T04:43:37;98852.48;;;11.47;77.30
46682;BME280;34101;53.430;-2.224;2023-03-22T04:46:05;98863.59;;;11.27;78.28
46682;BME280;34101;53.430;-2.224;2023-03-22T04:48:33;98862.73;;;11.67;76.77
46682;BME280;34101;53.430;-2.224;2023-03-22T04:51:01;98852.38;;;11.75;76.50
46682;BME280;34101;53.430;-2.224;2023-03-22T04:53:29;98853.65;;;11.46;76.86
46682;BME280;34101;53.430;-2.224;2023-03-22T04:55:56;98851.87;;;11.59;76.36
46682;BME280;34101;53.430;-2.224;2023-03-22T04:58:24;98863.12;;;11.22;76.57
46682;BME280;34101;53.430;-2.224;2023-03-22T05:00:52;98866.31;;;11.30;75.52
46682;BME280;34101;53.430;-2.224;2023-03-22T05:03:20;98861.38;;;11.23;73.52
46682;BME280;34101;53.430;-2.224;2023-03-22T05:05:50;98877.72;;;11.32;72.44
46682;BME280;34101;53.430;-2.224;2023-03-22T05:08:19;98882.02;;;11.35;70.84
46682;BME280;34101;53.430;-2.224;2023-03-22T05:10:47;98883.72;;;11.22;70.50
46682;BME280;34101;53.430;-2.224;2023-03-22T05:13:15;98879.56;;;11.19;69.68
46682;BME280;34101;53.430;-2.224;2023-03-22T05:15:43;98875.70;;;11.27;68.07
46682;BME280;34101;53.430;-2.224;2023-03-22T05:18:10;98877.47;;;11.13;68.10
46682;BME280;34101;53.430;-2.224;2023-03-22T05:20:37;98871.57;;;11.09;67.08
46682;BME280;34101;53.430;-2.224;2023-03-22T05:23:05;98887.49;;;11.21;66.75
46682;BME280;34101;53.430;-2.224;2023-03-22T05:25:32;98888.68;;;11.11;66.96
46682;BME280;34101;53.430;-2.224;2023-03-22T05:28:00;98890.79;;;11.23;66.36
46682;BME280;34101;53.430;-2.224;2023-03-22T05:30:27;98902.49;;;11.26;66.67
46682;BME280;34101;53.430;-2.224;2023-03-22T05:32:58;98903.67;;;11.11;66.97
46682;BME280;34101;53.430;-2.224;2023-03-22T05:35:25;98910.47;;;11.03;67.62
46682;BME280;34101;53.430;-2.224;2023-03-22T05:37:53;98914.86;;;10.96;67.33
46682;BME280;34101;53.430;-2.224;2023-03-22T05:40:20;98921.65;;;11.00;67.12
46682;BME280;34101;53.430;-2.224;2023-03-22T05:42:48;98934.45;;;10.87;66.20
46682;BME280;34101;53.430;-2.224;2023-03-22T05:45:16;98923.82;;;10.88;66.28
46682;BME280;34101;53.430;-2.224;2023-03-22T05:47:44;98935.47;;;11.01;66.35
46682;BME280;34101;53.430;-2.224;2023-03-22T05:50:15;98923.65;;;10.86;66.39
46682;BME280;34101;53.430;-2.224;2023-03-22T05:52:43;98927.49;;;10.73;65.92
46682;BME280;34101;53.430;-2.224;2023-03-22T05:55:10;98929.81;;;10.58;65.86
46682;BME280;34101;53.430;-2.224;2023-03-22T05:57:38;98929.56;;;10.55;65.38
46682;BME280;34101;53.430;-2.224;2023-03-22T06:00:08;98933.77;;;10.48;65.67
46682;BME280;34101;53.430;-2.224;2023-03-22T06:02:36;98936.71;;;10.61;65.52
46682;BME280;34101;53.430;-2.224;2023-03-22T06:05:04;98955.49;;;10.59;65.72
46682;BME280;34101;53.430;-2.224;2023-03-22T06:07:32;98970.12;;;10.68;65.92
46682;BME280;34101;53.430;-2.224;2023-03-22T06:09:59;98965.22;;;10.41;66.28
46682;BME280;34101;53.430;-2.224;2023-03-22T06:12:26;98971.10;;;10.66;65.90
46682;BME280;34101;53.430;-2.224;2023-03-22T06:14:54;98967.95;;;10.61;65.82
46682;BME280;34101;53.430;-2.224;2023-03-22T06:17:21;98967.12;;;10.14;67.34
46682;BME280;34101;53.430;-2.224;2023-03-22T06:19:52;98979.61;;;10.23;67.04
46682;BME280;34101;53.430;-2.224;2023-03-22T06:22:20;98981.19;;;10.48;66.47
46682;BME280;34101;53.430;-2.224;2023-03-22T06:24:54;98984.21;;;10.12;67.09
46682;BME280;34101;53.430;-2.224;2023-03-22T06:27:22;98988.92;;;10.36;66.23
46682;BME280;34101;53.430;-2.224;2023-03-22T06:29:50;98996.00;;;10.00;66.99
46682;BME280;34101;53.430;-2.224;2023-03-22T06:32:18;98995.25;;;10.07;67.07
46682;BME280;34101;53.430;-2.224;2023-03-22T06:34:46;99005.26;;;10.18;67.12
46682;BME280;34101;53.430;-2.224;2023-03-22T06:37:13;99015.15;;;10.04;67.05
46682;BME280;34101;53.430;-2.224;2023-03-22T06:39:40;99007.78;;;9.95;67.12
46682;BME280;34101;53.430;-2.224;2023-03-22T06:42:07;99014.70;;;10.02;66.82
46682;BME280;34101;53.430;-2.224;2023-03-22T06:44:35;99019.85;;;9.96;66.83
46682;BME280;34101;53.430;-2.224;2023-03-22T06:47:02;99019.41;;;9.95;66.66
46682;BME280;34101;53.430;-2.224;2023-03-22T06:49:29;99026.74;;;9.85;67.07
46682;BME280;34101;53.430;-2.224;2023-03-22T06:51:57;99028.07;;;9.72;66.82
46682;BME280;34101;53.430;-2.224;2023-03-22T06:54:24;99027.78;;;9.73;66.75
46682;BME280;34101;53.430;-2.224;2023-03-22T06:56:51;99033.26;;;9.72;66.80
46682;BME280;34101;53.430;-2.224;2023-03-22T06:59:19;99036.90;;;9.84;66.50
46682;BME280;34101;53.430;-2.224;2023-03-22T07:01:46;99039.51;;;9.48;67.49
46682;BME280;34101;53.430;-2.224;2023-03-22T07:04:13;99041.71;;;9.66;66.84
46682;BME280;34101;53.430;-2.224;2023-03-22T07:06:41;99040.91;;;9.82;67.39
46682;BME280;34101;53.430;-2.224;2023-03-22T07:09:08;99051.36;;;9.71;66.50
46682;BME280;34101;53.430;-2.224;2023-03-22T07:11:36;99057.84;;;9.53;67.14
46682;BME280;34101;53.430;-2.224;2023-03-22T07:14:03;99052.90;;;9.56;66.70
46682;BME280;34101;53.430;-2.224;2023-03-22T07:16:30;99053.14;;;9.88;65.71
46682;BME280;34101;53.430;-2.224;2023-03-22T07:18:57;99056.78;;;9.84;66.35
46682;BME280;34101;53.430;-2.224;2023-03-22T07:21:25;99054.91;;;9.80;65.42
46682;BME280;34101;53.430;-2.224;2023-03-22T07:23:52;99061.97;;;9.83;65.43
46682;BME280;34101;53.430;-2.224;2023-03-22T07:26:25;99067.99;;;10.07;65.51
46682;BME280;34101;53.430;-2.224;2023-03-22T07:28:52;99079.43;;;9.51;65.45
46682;BME280;34101;53.430;-2.224;2023-03-22T07:31:20;99078.40;;;9.87;64.29
46682;BME280;34101;53.430;-2.224;2023-03-22T07:33:47;99085.55;;;9.70;64.47
46682;BME280;34101;53.430;-2.224;2023-03-22T07:36:14;99085.71;;;9.98;64.25
46682;BME280;34101;53.430;-2.224;2023-03-22T07:38:42;99085.14;;;9.85;63.86
46682;BME280;34101;53.430;-2.224;2023-03-22T07:41:09;99088.54;;;9.62;64.12
46682;BME280;34101;53.430;-2.224;2023-03-22T07:43:37;99096.88;;;9.91;62.69
46682;BME280;34101;53.430;-2.224;2023-03-22T07:46:04;99098.41;;;9.68;62.84
46682;BME280;34101;53.430;-2.224;2023-03-22T07:48:32;99103.22;;;9.81;62.34
46682;BME280;34101;53.430;-2.224;2023-03-22T07:50:59;99101.49;;;10.03;61.18
46682;BME280;34101;53.430;-2.224;2023-03-22T07:53:27;99101.56;;;10.01;61.30
46682;BME280;34101;53.430;-2.224;2023-03-22T07:55:54;99101.39;;;10.15;60.90
46682;BME280;34101;53.430;-2.224;2023-03-22T07:58:21;99104.19;;;10.13;60.96
46682;BME280;34101;53.430;-2.224;2023-03-22T08:00:49;99103.73;;;9.94;60.93
46682;BME280;34101;53.430;-2.224;2023-03-22T08:03:16;99094.34;;;10.16;60.64
46682;BME280;34101;53.430;-2.224;2023-03-22T08:05:43;99104.25;;;10.21;60.08
46682;BME280;34101;53.430;-2.224;2023-03-22T08:08:11;99101.63;;;10.78;59.62
46682;BME280;34101;53.430;-2.224;2023-03-22T08:10:38;99098.79;;;10.24;59.41
46682;BME280;34101;53.430;-2.224;2023-03-22T08:13:05;99089.46;;;10.09;59.42
46682;BME280;34101;53.430;-2.224;2023-03-22T08:15:33;99087.90;;;10.12;58.91
46682;BME280;34101;53.430;-2.224;2023-03-22T08:18:00;99093.89;;;10.28;58.94
46682;BME280;34101;53.430;-2.224;2023-03-22T08:20:27;99088.67;;;10.24;58.18
46682;BME280;34101;53.430;-2.224;2023-03-22T08:22:55;99089.40;;;10.48;57.75
46682;BME280;34101;53.430;-2.224;2023-03-22T08:25:22;99089.74;;;10.88;56.42
46682;BME280;34101;53.430;-2.224;2023-03-22T08:27:50;99090.55;;;11.33;55.44
46682;BME280;34101;53.430;-2.224;2023-03-22T08:30:17;99097.50;;;11.69;54.13
46682;BME280;34101;53.430;-2.224;2023-03-22T08:32:45;99091.96;;;12.04;53.13
46682;BME280;34101;53.430;-2.224;2023-03-22T08:35:12;99090.69;;;11.49;53.58
46682;BME280;34101;53.430;-2.224;2023-03-22T08:37:39;99093.45;;;12.90;50.57
46682;BME280;34101;53.430;-2.224;2023-03-22T08:40:08;99089.75;;;11.90;51.52
46682;BME280;34101;53.430;-2.224;2023-03-22T08:42:36;99089.67;;;12.54;50.49
46682;BME280;34101;53.430;-2.224;2023-03-22T08:45:03;99092.39;;;12.57;50.38
46682;BME280;34101;53.430;-2.224;2023-03-22T08:47:30;99095.08;;;12.59;50.14
46682;BME280;34101;53.430;-2.224;2023-03-22T08:49:58;99092.85;;;12.56;49.94
46682;BME280;34101;53.430;-2.224;2023-03-22T08:52:25;99085.46;;;12.79;49.10
46682;BME280;34101;53.430;-2.224;2023-03-22T08:54:53;99087.74;;;13.04;47.92
46682;BME280;34101;53.430;-2.224;2023-03-22T08:57:20;99090.51;;;12.84;49.23
46682;BME280;34101;53.430;-2.224;2023-03-22T08:59:47;99087.94;;;13.14;48.24
46682;BME280;34101;53.430;-2.224;2023-03-22T09:02:14;99085.42;;;13.04;48.07
46682;BME280;34101;53.430;-2.224;2023-03-22T09:04:42;99088.07;;;13.41;47.92
46682;BME280;34101;53.430;-2.224;2023-03-22T09:07:09;99088.30;;;13.78;47.16
46682;BME280;34101;53.430;-2.224;2023-03-22T09:09:36;99095.41;;;13.41;47.83
46682;BME280;34101;53.430;-2.224;2023-03-22T09:12:04;99095.64;;;13.08;47.74
46682;BME280;34101;53.430;-2.224;2023-03-22T09:14:31;99091.92;;;12.86;48.68
46682;BME280;34101;53.430;-2.224;2023-03-22T09:16:59;99092.37;;;13.89;46.08
46682;BME280;34101;53.430;-2.224;2023-03-22T09:19:26;99088.55;;;13.92;46.28
46682;BME280;34101;53.430;-2.224;2023-03-22T09:21:53;99082.99;;;14.24;46.05
46682;BME280;34101;53.430;-2.224;2023-03-22T09:24:21;99085.85;;;14.73;44.38
46682;BME280;34101;53.430;-2.224;2023-03-22T09:26:48;99088.69;;;13.91;45.19
46682;BME280;34101;53.430;-2.224;2023-03-22T09:29:15;99100.07;;;14.01;44.79
46682;BME280;34101;53.430;-2.224;2023-03-22T09:31:43;99104.28;;;13.08;47.00
46682;BME280;34101;53.430;-2.224;2023-03-22T09:34:10;99100.85;;;13.64;45.94
46682;BME280;34101;53.430;-2.224;2023-03-22T09:36:38;99103.92;;;13.19;47.72
46682;BME280;34101;53.430;-2.224;2023-03-22T09:39:05;99099.46;;;13.51;44.71
46682;BME280;34101;53.430;-2.224;2023-03-22T09:41:36;99094.75;;;13.26;45.85
46682;BME280;34101;53.430;-2.224;2023-03-22T09:44:10;99095.42;;;13.82;44.65
46682;BME280;34101;53.430;-2.224;2023-03-22T09:46:43;99100.54;;;14.90;42.95
46682;BME280;34101;53.430;-2.224;2023-03-22T09:49:15;99105.43;;;14.51;43.45
46682;BME280;34101;53.430;-2.224;2023-03-22T09:51:44;99103.24;;;15.22;40.00
46682;BME280;34101;53.430;-2.224;2023-03-22T09:54:15;99106.01;;;14.01;42.85
46682;BME280;34101;53.430;-2.224;2023-03-22T09:56:46;99110.39;;;14.60;41.75
46682;BME280;34101;53.430;-2.224;2023-03-22T09:59:19;99101.69;;;14.04;43.28
46682;BME280;34101;53.430;-2.224;2023-03-22T10:01:52;99097.97;;;14.53;41.74
46682;BME280;34101;53.430;-2.224;2023-03-22T10:04:33;99098.68;;;13.88;44.24
46682;BME280;34101;53.430;-2.224;2023-03-22T10:07:12;99102.14;;;13.90;42.45
46682;BME280;34101;53.430;-2.224;2023-03-22T10:09:49;99103.37;;;14.24;41.57
46682;BME280;34101;53.430;-2.224;2023-03-22T10:12:22;99106.00;;;15.18;39.81
46682;BME280;34101;53.430;-2.224;2023-03-22T10:14:58;99106.86;;;15.52;39.02
46682;BME280;34101;53.430;-2.224;2023-03-22T10:17:28;99107.02;;;15.62;37.90
46682;BME280;34101;53.430;-2.224;2023-03-22T10:19:59;99113.27;;;16.15;36.95
46682;BME280;34101;53.430;-2.224;2023-03-22T10:22:32;99118.41;;;16.16;37.82
46682;BME280;34101;53.430;-2.224;2023-03-22T10:25:00;99113.46;;;14.99;38.84
46682;BME280;34101;53.430;-2.224;2023-03-22T10:27:29;99112.37;;;15.54;36.94
46682;BME280;34101;53.430;-2.224;2023-03-22T10:29:59;99119.79;;;14.66;37.12
46682;BME280;34101;53.430;-2.224;2023-03-22T10:32:33;99113.99;;;14.59;37.27
46682;BME280;34101;53.430;-2.224;2023-03-22T10:35:03;99121.39;;;14.87;37.24
46682;BME280;34101;53.430;-2.224;2023-03-22T10:37:32;99132.00;;;16.02;35.04
46682;BME280;34101;53.430;-2.224;2023-03-22T10:40:03;99122.08;;;16.10;33.89
46682;BME280;34101;53.430;-2.224;2023-03-22T10:42:31;99115.32;;;15.16;35.78
46682;BME280;34101;53.430;-2.224;2023-03-22T10:45:00;99111.12;;;15.20;35.27
46682;BME280;34101;53.430;-2.224;2023-03-22T10:47:32;99125.87;;;14.50;36.77
46682;BME280;34101;53.430;-2.224;2023-03-22T10:50:02;99123.10;;;14.83;36.41
46682;BME280;34101;53.430;-2.224;2023-03-22T10:52:38;99127.84;;;15.72;35.12
46682;BME280;34101;53.430;-2.224;2023-03-22T10:55:10;99125.09;;;15.45;34.01
46682;BME280;34101;53.430;-2.224;2023-03-22T10:57:38;99128.06;;;15.25;34.45
46682;BME280;34101;53.430;-2.224;2023-03-22T11:00:06;99111.71;;;15.40;34.02
46682;BME280;34101;53.430;-2.224;2023-03-22T11:02:34;99119.39;;;14.90;35.64
46682;BME280;34101;53.430;-2.224;2023-03-22T11:05:04;99114.65;;;15.25;35.47
46682;BME280;34101;53.430;-2.224;2023-03-22T11:07:33;99111.93;;;14.82;34.44
46682;BME280;34101;53.430;-2.224;2023-03-22T11:10:33;99118.98;;;16.16;32.19
46682;BME280;34101;53.430;-2.224;2023-03-22T11:13:19;99120.28;;;15.55;33.41
46682;BME280;34101;53.430;-2.224;2023-03-22T11:15:51;99115.59;;;15.12;32.82
46682;BME280;34101;53.430;-2.224;2023-03-22T11:18:20;99108.82;;;16.27;31.16
46682;BME280;34101;53.430;-2.224;2023-03-22T11:20:58;99104.10;;;16.44;30.44
46682;BME280;34101;53.430;-2.224;2023-03-22T11:23:26;99111.34;;;15.44;32.43
46682;BME280;34101;53.430;-2.224;2023-03-22T11:25:59;99105.49;;;16.08;31.26
46682;BME280;34101;53.430;-2.224;2023-03-22T11:28:35;99103.94;;;16.11;31.26
46682;BME280;34101;53.430;-2.224;2023-03-22T11:31:07;99121.85;;;15.42;31.73
46682;BME280;34101;53.430;-2.224;2023-03-22T11:33:36;99136.35;;;15.36;32.30
46682;BME280;34101;53.430;-2.224;2023-03-22T11:36:13;99121.16;;;15.52;32.29
46682;BME280;34101;53.430;-2.224;2023-03-22T11:38:42;99117.71;;;15.00;33.58
46682;BME280;34101;53.430;-2.224;2023-03-22T11:41:18;99130.10;;;14.96;34.04
46682;BME280;34101;53.430;-2.224;2023-03-22T11:43:48;99114.74;;;15.60;35.29
46682;BME280;34101;53.430;-2.224;2023-03-22T11:46:17;99107.61;;;16.91;32.36
46682;BME280;34101;53.430;-2.224;2023-03-22T11:48:46;99102.02;;;16.13;34.03
46682;BME280;34101;53.430;-2.224;2023-03-22T11:51:16;99101.51;;;16.71;32.90
46682;BME280;34101;53.430;-2.224;2023-03-22T11:53:46;99100.83;;;16.78;33.01
46682;BME280;34101;53.430;-2.224;2023-03-22T11:56:17;99103.68;;;15.88;34.49
46682;BME280;34101;53.430;-2.224;2023-03-22T11:58:55;99100.29;;;15.69;34.99
46682;BME280;34101;53.430;-2.224;2023-03-22T12:01:30;99081.07;;;15.59;35.27
46682;BME280;34101;53.430;-2.224;2023-03-22T12:04:02;99077.62;;;16.47;34.43
46682;BME280;34101;53.430;-2.224;2023-03-22T12:06:35;99075.57;;;16.45;32.93
46682;BME280;34101;53.430;-2.224;2023-03-22T12:09:09;99076.36;;;16.10;34.96
46682;BME280;34101;53.430;-2.224;2023-03-22T12:11:39;99078.17;;;15.49;36.07
46682;BME280;34101;53.430;-2.224;2023-03-22T12:14:15;99077.27;;;17.12;34.14
46682;BME280;34101;53.430;-2.224;2023-03-22T12:16:47;99057.92;;;16.39;35.69
46682;BME280;34101;53.430;-2.224;2023-03-22T12:19:25;99068.83;;;15.95;34.50
46682;BME280;34101;53.430;-2.224;2023-03-22T12:21:59;99034.23;;;16.06;34.66
46682;BME280;34101;53.430;-2.224;2023-03-22T12:24:29;99055.97;;;15.61;34.80
46682;BME280;34101;53.430;-2.224;2023-03-22T12:27:01;99056.03;;;14.87;36.15
46682;BME280;34101;53.430;-2.224;2023-03-22T12:29:31;99047.72;;;14.36;37.95
46682;BME280;34101;53.430;-2.224;2023-03-22T12:32:03;99049.31;;;14.97;37.66
46682;BME280;34101;53.430;-2.224;2023-03-22T12:34:37;99046.41;;;15.35;37.66
46682;BME280;34101;53.430;-2.224;2023-03-22T12:37:09;99055.58;;;15.39;37.82
46682;BME280;34101;53.430;-2.224;2023-03-22T12:39:44;99046.92;;;16.13;36.73
46682;BME280;34101;53.430;-2.224;2023-03-22T12:42:18;99053.24;;;15.13;36.64
46682;BME280;34101;53.430;-2.224;2023-03-22T12:44:47;99050.08;;;15.49;37.17
46682;BME280;34101;53.430;-2.224;2023-03-22T12:47:19;99056.54;;;15.43;37.88
46682;BME280;34101;53.430;-2.224;2023-03-22T12:49:53;99051.07;;;14.86;37.50
46682;BME280;34101;53.430;-2.224;2023-03-22T12:52:25;99056.72;;;14.65;39.42
46682;BME280;34101;53.430;-2.224;2023-03-22T12:54:55;99045.94;;;13.99;39.62
46682;BME280;34101;53.430;-2.224;2023-03-22T12:57:24;99040.66;;;14.15;39.60
46682;BME280;34101;53.430;-2.224;2023-03-22T12:59:56;99041.98;;;14.21;39.36
46682;BME280;34101;53.430;-2.224;2023-03-22T13:02:26;99034.44;;;14.22;39.08
46682;BME280;34101;53.430;-2.224;2023-03-22T13:04:57;99035.23;;;14.37;38.86
46682;BME280;34101;53.430;-2.224;2023-03-22T13:07:51;99031.24;;;14.56;38.03
46682;BME280;34101;53.430;-2.224;2023-03-22T13:11:24;99025.02;;;14.21;38.41